createdAt,value
2022-11-09T00:00:55.135Z,15.80
2022-11-09T00:03:23.473Z,16.85
2022-11-09T00:05:57.318Z,15.60
2022-11-09T00:08:24.752Z,16.75
2022-11-09T00:10:51.799Z,15.82
2022-11-09T00:13:19.150Z,16.27
2022-11-09T00:15:46.397Z,15.73
2022-11-09T00:18:13.361Z,15.85
2022-11-09T00:20:47.176Z,16.58
2022-11-09T00:23:14.840Z,15.40
2022-11-09T00:25:42.091Z,15.20
2022-11-09T00:28:09.119Z,14.55
2022-11-09T00:30:36.097Z,14.90
2022-11-09T00:33:03.329Z,14.55
2022-11-09T00:35:30.275Z,15.23
2022-11-09T00:37:58.847Z,14.32
2022-11-09T00:40:25.886Z,13.93
2022-11-09T00:42:52.811Z,13.50
2022-11-09T00:45:20.279Z,14.80
2022-11-09T00:47:47.297Z,14.15
2022-11-09T00:50:15.003Z,14.00
2022-11-09T00:52:42.003Z,13.82
2022-11-09T00:55:10.586Z,14.68
2022-11-09T00:57:38.268Z,15.07
2022-11-09T01:00:06.709Z,14.52
2022-11-09T01:02:33.656Z,14.93
2022-11-09T01:05:00.926Z,14.55
2022-11-09T01:07:27.888Z,13.82
2022-11-09T01:09:55.040Z,13.88
2022-11-09T01:12:26.200Z,14.57
2022-11-09T01:14:53.185Z,14.60
2022-11-09T01:17:20.217Z,13.95
2022-11-09T01:19:47.904Z,14.25
2022-11-09T01:22:15.280Z,13.88
2022-11-09T01:24:42.386Z,13.38
2022-11-09T01:27:09.379Z,14.50
2022-11-09T01:29:38.541Z,13.52
2022-11-09T01:32:05.548Z,13.55
2022-11-09T01:34:32.637Z,14.65
2022-11-09T01:37:02.380Z,14.73
2022-11-09T01:39:30.387Z,14.57
2022-11-09T01:41:57.428Z,14.02
2022-11-09T01:44:27.564Z,14.23
2022-11-09T01:46:58.905Z,14.02
2022-11-09T01:49:37.790Z,14.73
2022-11-09T01:52:11.053Z,13.80
2022-11-09T01:54:41.892Z,14.00
2022-11-09T01:57:12.073Z,14.50
2022-11-09T01:59:42.408Z,13.27
2022-11-09T02:02:11.172Z,14.15
2022-11-09T02:04:44.588Z,13.32
2022-11-09T02:07:12.006Z,13.95
2022-11-09T02:09:43.646Z,13.32
2022-11-09T02:12:10.904Z,14.30
2022-11-09T02:14:39.343Z,14.52
2022-11-09T02:17:07.780Z,14.48
2022-11-09T02:19:36.316Z,15.10
2022-11-09T02:22:05.621Z,15.05
2022-11-09T02:24:33.433Z,14.88
2022-11-09T02:27:00.951Z,14.90
2022-11-09T02:29:35.525Z,15.65
2022-11-09T02:32:06.803Z,15.63
2022-11-09T02:34:34.053Z,15.70
2022-11-09T02:37:02.576Z,15.30
2022-11-09T02:39:31.220Z,15.18
2022-11-09T02:42:03.112Z,13.85
2022-11-09T02:44:36.786Z,15.02
2022-11-09T02:47:03.939Z,15.68
2022-11-09T02:49:31.309Z,14.98
2022-11-09T02:51:58.613Z,15.25
2022-11-09T02:54:25.638Z,15.55
2022-11-09T02:56:55.745Z,15.95
2022-11-09T02:59:22.872Z,14.65
2022-11-09T03:01:50.619Z,15.40
2022-11-09T03:04:18.140Z,15.10
2022-11-09T03:06:45.966Z,15.77
2022-11-09T03:09:15.920Z,14.48
2022-11-09T03:11:43.493Z,13.70
2022-11-09T03:14:14.743Z,14.45
2022-11-09T03:16:50.555Z,15.00
2022-11-09T03:19:18.268Z,13.93
2022-11-09T03:21:47.386Z,13.65
2022-11-09T03:24:14.324Z,13.35
2022-11-09T03:26:42.769Z,14.40
2022-11-09T03:29:09.716Z,14.00
2022-11-09T03:31:38.309Z,13.57
2022-11-09T03:34:08.089Z,13.70
2022-11-09T03:36:35.697Z,13.65
2022-11-09T03:39:03.450Z,14.23
2022-11-09T03:41:30.548Z,13.52
2022-11-09T03:43:57.573Z,13.35
2022-11-09T03:46:24.822Z,13.15
2022-11-09T03:48:53.552Z,12.77
2022-11-09T03:51:20.478Z,13.57
2022-11-09T03:53:47.396Z,13.88
2022-11-09T03:56:14.334Z,12.98
2022-11-09T03:58:41.266Z,13.27
2022-11-09T04:01:08.268Z,13.63
2022-11-09T04:03:35.291Z,13.80
2022-11-09T04:06:07.071Z,14.57
2022-11-09T04:08:34.014Z,14.68
2022-11-09T04:11:00.954Z,14.40
2022-11-09T04:13:27.973Z,15.18
2022-11-09T04:15:54.936Z,14.90
2022-11-09T04:18:22.060Z,14.23
2022-11-09T04:20:49.033Z,14.40
2022-11-09T04:23:17.918Z,15.75
2022-11-09T04:25:45.064Z,14.32
2022-11-09T04:28:19.001Z,14.63
2022-11-09T04:30:45.964Z,13.02
2022-11-09T04:33:13.085Z,13.82
2022-11-09T04:35:40.223Z,14.18
2022-11-09T04:38:10.322Z,14.40
2022-11-09T04:40:41.095Z,13.70
2022-11-09T04:43:13.116Z,13.90
2022-11-09T04:45:40.347Z,14.38
2022-11-09T04:48:10.780Z,13.57
2022-11-09T04:50:40.602Z,14.77
2022-11-09T04:53:09.291Z,13.68
2022-11-09T04:55:38.111Z,13.75
2022-11-09T04:58:05.469Z,13.20
2022-11-09T05:00:32.786Z,15.50
2022-11-09T05:03:01.458Z,13.88
2022-11-09T05:05:28.701Z,12.50
2022-11-09T05:07:55.805Z,13.57
2022-11-09T05:10:22.829Z,13.70
2022-11-09T05:12:57.022Z,13.75
2022-11-09T05:15:24.061Z,14.32
2022-11-09T05:17:51.002Z,14.25
2022-11-09T05:20:18.432Z,13.68
2022-11-09T05:23:04.385Z,14.43
2022-11-09T05:25:31.357Z,13.43
2022-11-09T05:27:59.918Z,12.98
2022-11-09T05:30:26.979Z,14.13
2022-11-09T05:32:54.161Z,13.55
2022-11-09T05:35:21.139Z,12.85
2022-11-09T05:37:48.747Z,13.07
2022-11-09T05:40:16.713Z,13.40
2022-11-09T05:42:44.175Z,13.23
2022-11-09T05:45:40.742Z,13.05
2022-11-09T05:48:03.644Z,14.00
2022-11-09T05:50:30.595Z,13.73
2022-11-09T05:53:10.928Z,12.60
2022-11-09T05:55:38.476Z,13.02
2022-11-09T05:58:05.674Z,13.40
2022-11-09T06:00:34.297Z,13.40
2022-11-09T06:03:02.924Z,13.45
2022-11-09T06:05:33.241Z,13.27
2022-11-09T06:08:03.454Z,12.95
2022-11-09T06:10:30.999Z,12.57
2022-11-09T06:12:58.056Z,12.43
2022-11-09T06:15:25.129Z,13.05
2022-11-09T06:17:54.268Z,13.23
2022-11-09T06:20:22.277Z,12.00
2022-11-09T06:22:53.600Z,12.77
2022-11-09T06:25:21.750Z,12.70
2022-11-09T06:27:49.115Z,12.60
2022-11-09T06:30:16.544Z,11.82
2022-11-09T06:32:43.814Z,12.70
2022-11-09T06:35:12.230Z,12.38
2022-11-09T06:37:39.195Z,12.02
2022-11-09T06:40:07.201Z,13.15
2022-11-09T06:42:34.360Z,12.55
2022-11-09T06:45:01.386Z,13.18
2022-11-09T06:47:29.205Z,12.23
2022-11-09T06:49:56.220Z,12.73
2022-11-09T06:52:26.049Z,13.60
2022-11-09T06:54:53.280Z,14.00
2022-11-09T06:57:20.271Z,13.55
2022-11-09T06:59:47.273Z,14.05
2022-11-09T07:02:16.929Z,13.38
2022-11-09T07:04:44.309Z,12.52
2022-11-09T07:07:11.424Z,13.88
2022-11-09T07:09:39.924Z,14.48
2022-11-09T07:12:07.102Z,12.90
2022-11-09T07:14:34.275Z,13.18
2022-11-09T07:17:01.936Z,14.13
2022-11-09T07:19:29.121Z,13.98
2022-11-09T07:21:56.497Z,13.32
2022-11-09T07:24:23.825Z,14.05
2022-11-09T07:26:52.236Z,13.85
2022-11-09T07:29:19.262Z,13.60
2022-11-09T07:31:46.205Z,14.45
2022-11-09T07:34:13.282Z,15.13
2022-11-09T07:36:40.243Z,14.98
2022-11-09T07:39:07.237Z,14.68
2022-11-09T07:41:35.001Z,15.30
2022-11-09T07:44:04.359Z,14.68
2022-11-09T07:46:31.562Z,14.45
2022-11-09T07:48:58.588Z,13.73
2022-11-09T07:51:25.612Z,14.13
2022-11-09T07:53:52.612Z,14.07
2022-11-09T07:56:19.560Z,14.32
2022-11-09T07:58:46.543Z,15.00
2022-11-09T08:01:14.885Z,14.27
2022-11-09T08:03:41.901Z,13.80
2022-11-09T08:06:10.273Z,13.85
2022-11-09T08:08:39.000Z,14.48
2022-11-09T08:11:06.173Z,13.90
2022-11-09T08:13:33.212Z,14.57
2022-11-09T08:16:01.645Z,15.70
2022-11-09T08:18:30.123Z,14.25
2022-11-09T08:20:57.077Z,14.90
2022-11-09T08:23:24.001Z,14.93
2022-11-09T08:25:51.000Z,15.05
2022-11-09T08:28:18.402Z,14.18
2022-11-09T08:30:46.098Z,14.40
2022-11-09T08:33:14.199Z,14.43
2022-11-09T08:35:42.550Z,14.05
2022-11-09T08:38:09.769Z,14.55
2022-11-09T08:40:36.983Z,15.07
2022-11-09T08:43:06.243Z,15.10
2022-11-09T08:45:38.035Z,13.75
2022-11-09T08:48:06.399Z,14.68
2022-11-09T08:50:34.880Z,15.15
2022-11-09T08:53:04.406Z,15.40
2022-11-09T08:55:31.952Z,15.57
2022-11-09T08:58:00.787Z,16.38
2022-11-09T09:00:28.213Z,15.20
2022-11-09T09:02:55.281Z,15.25
2022-11-09T09:05:23.190Z,15.18
2022-11-09T09:07:50.561Z,16.00
2022-11-09T09:10:19.042Z,15.20
2022-11-09T09:12:46.223Z,16.45
2022-11-09T09:15:13.257Z,16.40
2022-11-09T09:17:40.246Z,15.65
2022-11-09T09:20:07.688Z,14.82
2022-11-09T09:22:34.857Z,15.18
2022-11-09T09:25:02.245Z,13.75
2022-11-09T09:27:30.800Z,15.80
2022-11-09T09:29:58.036Z,15.55
2022-11-09T09:32:25.680Z,15.60
2022-11-09T09:34:52.925Z,15.15
2022-11-09T09:37:19.865Z,14.70
2022-11-09T09:39:46.811Z,15.65
2022-11-09T09:42:17.778Z,16.13
2022-11-09T09:44:52.245Z,17.15
2022-11-09T09:47:24.880Z,18.00
2022-11-09T09:49:55.330Z,16.52
2022-11-09T09:52:29.454Z,17.00
2022-11-09T09:55:00.645Z,15.93
2022-11-09T09:57:29.991Z,16.23
2022-11-09T10:00:01.264Z,15.43
2022-11-09T10:02:30.268Z,14.80
2022-11-09T10:04:59.467Z,14.35
2022-11-09T10:07:30.829Z,12.63
2022-11-09T10:10:17.547Z,12.93
2022-11-09T10:12:57.439Z,13.27
2022-11-09T10:15:31.698Z,13.63
2022-11-09T10:18:09.605Z,12.93
2022-11-09T10:20:52.962Z,14.85
2022-11-09T10:23:39.789Z,14.98
2022-11-09T10:26:16.577Z,14.23
2022-11-09T10:29:14.354Z,13.57
2022-11-09T10:31:41.182Z,12.75
2022-11-09T10:34:16.845Z,13.90
2022-11-09T10:36:47.854Z,13.57
2022-11-09T10:39:16.961Z,13.23
2022-11-09T10:42:02.244Z,13.27
2022-11-09T10:44:48.076Z,13.43
2022-11-09T10:47:47.987Z,13.30
2022-11-09T10:50:37.584Z,12.98
2022-11-09T10:53:24.874Z,13.27
2022-11-09T10:56:20.387Z,15.00
2022-11-09T10:59:35.458Z,14.35
2022-11-09T11:02:43.895Z,13.77
2022-11-09T11:05:33.755Z,13.75
2022-11-09T11:08:35.657Z,13.38
2022-11-09T11:11:33.772Z,13.20
2022-11-09T11:14:27.080Z,13.45
2022-11-09T11:17:21.983Z,13.23
2022-11-09T11:20:31.543Z,12.68
2022-11-09T11:23:20.180Z,13.63
2022-11-09T11:26:30.439Z,12.00
2022-11-09T11:29:45.006Z,12.77
2022-11-09T11:32:31.079Z,12.48
2022-11-09T11:35:18.753Z,12.98
2022-11-09T11:38:16.559Z,13.15
2022-11-09T11:41:31.138Z,12.45
2022-11-09T11:44:28.518Z,12.40
2022-11-09T11:47:20.981Z,13.60
2022-11-09T11:50:29.757Z,13.48
2022-11-09T11:53:28.289Z,13.02
2022-11-09T11:56:22.841Z,12.13
2022-11-09T11:59:38.419Z,12.27
2022-11-09T12:02:40.743Z,13.25
2022-11-09T12:05:47.801Z,12.18
2022-11-09T12:08:47.673Z,12.90
2022-11-09T12:11:46.288Z,12.02
2022-11-09T12:14:42.934Z,13.85
2022-11-09T12:17:38.106Z,12.93
2022-11-09T12:23:38.204Z,12.60
2022-11-09T12:26:35.761Z,12.45
2022-11-09T12:29:23.617Z,12.57
2022-11-09T12:32:20.412Z,13.52
2022-11-09T12:35:27.298Z,12.95
2022-11-09T12:38:15.968Z,12.70
2022-11-09T12:41:06.383Z,12.45
2022-11-09T12:43:57.766Z,13.55
2022-11-09T12:46:46.489Z,13.20
2022-11-09T12:49:38.181Z,12.35
2022-11-09T12:52:28.164Z,13.15
2022-11-09T12:55:15.883Z,12.85
2022-11-09T12:58:01.459Z,13.00
2022-11-09T13:00:54.086Z,13.38
2022-11-09T13:03:51.641Z,14.30
2022-11-09T13:06:37.137Z,13.65
2022-11-09T13:09:25.601Z,13.82
2022-11-09T13:12:19.374Z,14.40
2022-11-09T13:15:23.561Z,14.68
2022-11-09T13:18:25.302Z,13.90
2022-11-09T13:21:37.090Z,13.43
2022-11-09T13:24:53.992Z,14.77
2022-11-09T13:27:42.928Z,13.10
2022-11-09T13:30:41.823Z,13.63
2022-11-09T13:33:29.673Z,14.23
2022-11-09T13:36:20.197Z,14.07
2022-11-09T13:39:31.507Z,13.82
2022-11-09T13:42:32.013Z,16.23
2022-11-09T13:45:27.009Z,18.88
2022-11-09T13:48:33.310Z,15.63
2022-11-09T13:51:22.618Z,15.15
2022-11-09T13:54:29.044Z,14.05
2022-11-09T13:57:16.626Z,15.52
2022-11-09T14:00:04.400Z,14.30
2022-11-09T14:02:54.621Z,25.55
2022-11-09T14:05:44.397Z,15.60
2022-11-09T14:08:33.940Z,14.48
2022-11-09T14:11:38.923Z,16.80
2022-11-09T14:14:56.597Z,14.60
2022-11-09T14:17:51.722Z,15.18
2022-11-09T14:20:47.403Z,16.45
2022-11-09T14:23:33.601Z,15.77
2022-11-09T14:26:21.696Z,18.92
2022-11-09T14:29:22.013Z,23.75
2022-11-09T14:32:23.513Z,23.02
2022-11-09T14:35:21.267Z,22.88
2022-11-09T14:38:18.410Z,33.00
2022-11-09T14:41:04.826Z,21.88
2022-11-09T14:43:52.461Z,21.00
2022-11-09T14:46:37.825Z,19.67
2022-11-09T14:49:25.439Z,21.33
2022-11-09T14:52:15.605Z,20.25
2022-11-09T14:55:03.519Z,20.52
2022-11-09T14:57:52.534Z,20.27
2022-11-09T15:00:41.845Z,19.88
2022-11-09T15:03:30.674Z,19.23
2022-11-09T15:06:17.877Z,17.58
2022-11-09T15:09:08.483Z,18.35
2022-11-09T15:11:55.556Z,18.38
2022-11-09T15:14:41.671Z,19.27
2022-11-09T15:17:30.080Z,18.30
2022-11-09T15:20:29.919Z,18.60
2022-11-09T15:23:24.549Z,21.30
2022-11-09T15:26:36.165Z,25.03
2022-11-09T15:29:37.000Z,29.38
2022-11-09T15:32:23.998Z,26.67
2022-11-09T15:35:16.746Z,48.70
2022-11-09T15:38:02.412Z,90.15
2022-11-09T15:40:47.814Z,108.50
2022-11-09T15:43:33.865Z,39.25
2022-11-09T15:46:23.677Z,49.03
2022-11-09T15:49:18.383Z,41.42
2022-11-09T15:52:05.926Z,31.83
2022-11-09T15:54:51.558Z,27.52
2022-11-09T15:57:36.925Z,23.75
2022-11-09T16:00:22.890Z,22.88
2022-11-09T16:03:11.111Z,29.13
2022-11-09T16:05:59.700Z,24.58
2022-11-09T16:08:47.568Z,19.73
2022-11-09T16:11:33.574Z,21.60
2022-11-09T16:14:21.604Z,19.67
2022-11-09T16:17:07.418Z,19.42
2022-11-09T16:19:54.569Z,22.48
2022-11-09T16:22:40.223Z,20.40
2022-11-09T16:25:25.433Z,17.08
2022-11-09T16:30:56.182Z,14.65
2022-11-09T16:33:41.589Z,16.25
2022-11-09T16:39:17.294Z,17.00
2022-11-09T16:42:10.392Z,17.15
2022-11-09T16:44:59.198Z,30.65
2022-11-09T16:47:48.599Z,27.08
2022-11-09T16:50:33.980Z,19.00
2022-11-09T16:53:26.468Z,14.40
2022-11-09T16:56:12.396Z,14.68
2022-11-09T17:01:43.321Z,23.30
2022-11-09T17:04:28.686Z,17.33
2022-11-09T17:07:14.103Z,16.98
2022-11-09T17:10:01.154Z,41.70
2022-11-09T17:12:46.663Z,34.05
2022-11-09T17:15:31.917Z,12.57
2022-11-09T17:18:17.357Z,12.82
2022-11-09T17:21:03.220Z,11.90
2022-11-09T17:23:49.152Z,13.80
2022-11-09T17:26:37.616Z,14.25
2022-11-09T17:29:23.872Z,15.70
2022-11-09T17:32:09.961Z,13.30
2022-11-09T17:34:55.189Z,14.13
2022-11-09T17:37:40.458Z,12.73
2022-11-09T17:40:25.640Z,12.95
2022-11-09T17:43:12.587Z,13.52
2022-11-09T17:46:02.789Z,12.68
2022-11-09T17:48:49.806Z,12.02
2022-11-09T17:51:35.207Z,12.88
2022-11-09T17:54:20.782Z,12.43
2022-11-09T17:57:06.410Z,12.57
2022-11-09T17:59:52.997Z,13.30
2022-11-09T18:02:38.847Z,13.10
2022-11-09T18:05:24.632Z,16.83
2022-11-09T18:08:11.661Z,15.27
2022-11-09T18:11:01.343Z,13.63
2022-11-09T18:13:46.985Z,18.48
2022-11-09T18:16:33.789Z,14.30
2022-11-09T18:19:19.328Z,13.68
2022-11-09T18:22:08.637Z,12.70
2022-11-09T18:24:56.839Z,13.57
2022-11-09T18:27:42.301Z,13.70
2022-11-09T18:30:28.151Z,13.70
2022-11-09T18:36:03.094Z,15.73
2022-11-09T18:38:52.013Z,13.77
2022-11-09T18:41:39.717Z,13.57
2022-11-09T18:44:25.270Z,12.63
2022-11-09T18:47:12.581Z,14.13
2022-11-09T18:49:59.480Z,14.82
2022-11-09T18:52:44.938Z,14.40
2022-11-09T18:55:30.756Z,14.60
2022-11-09T18:58:16.831Z,15.35
2022-11-09T19:01:04.204Z,15.02
2022-11-09T19:03:50.954Z,16.23
2022-11-09T19:06:39.903Z,14.93
2022-11-09T19:09:38.843Z,16.20
2022-11-09T19:12:25.550Z,14.38
2022-11-09T19:15:11.041Z,12.95
2022-11-09T19:17:57.464Z,11.93
2022-11-09T19:20:42.935Z,12.85
2022-11-09T19:23:34.450Z,12.80
2022-11-09T19:26:21.020Z,13.18
2022-11-09T19:29:07.642Z,12.38
2022-11-09T19:31:53.377Z,12.82
2022-11-09T19:34:39.317Z,13.15
2022-11-09T19:37:24.573Z,15.10
2022-11-09T19:40:12.759Z,15.05
2022-11-09T19:42:58.091Z,16.63
2022-11-09T19:45:43.453Z,18.63
2022-11-09T19:48:28.777Z,19.05
2022-11-09T19:51:15.833Z,18.73
2022-11-09T19:54:03.315Z,18.85
2022-11-09T19:56:50.203Z,18.08
2022-11-09T19:59:35.808Z,19.80
2022-11-09T20:02:21.202Z,17.98
2022-11-09T20:05:08.491Z,16.80
2022-11-09T20:07:53.860Z,17.90
2022-11-09T20:10:39.134Z,18.48
2022-11-09T20:13:25.926Z,18.55
2022-11-09T20:16:11.592Z,18.88
2022-11-09T20:18:57.224Z,17.88
2022-11-09T20:21:44.473Z,19.15
2022-11-09T20:24:29.765Z,17.80
2022-11-09T20:27:15.852Z,18.60
2022-11-09T20:30:03.258Z,19.58
2022-11-09T20:32:49.061Z,20.27
2022-11-09T20:35:35.051Z,20.00
2022-11-09T20:38:21.523Z,18.85
2022-11-09T20:41:11.290Z,20.25
2022-11-09T20:43:59.553Z,20.38
2022-11-09T20:46:46.547Z,20.42
2022-11-09T20:49:31.985Z,19.17
2022-11-09T20:52:20.361Z,18.73
2022-11-09T20:55:07.127Z,18.88
2022-11-09T20:57:52.462Z,19.45
2022-11-09T21:00:38.032Z,19.33
2022-11-09T21:03:25.660Z,20.33
2022-11-09T21:06:12.657Z,21.20
2022-11-09T21:09:00.308Z,20.05
2022-11-09T21:12:04.827Z,19.92
2022-11-09T21:14:51.576Z,20.75
2022-11-09T21:17:36.841Z,20.17
2022-11-09T21:20:23.668Z,18.95
2022-11-09T21:23:12.500Z,19.40
2022-11-09T21:26:18.485Z,20.13
2022-11-09T21:29:22.605Z,19.77
2022-11-09T21:32:08.936Z,19.58
2022-11-09T21:34:54.593Z,18.95
2022-11-09T21:37:41.247Z,21.20
2022-11-09T21:40:26.897Z,21.15
2022-11-09T21:43:12.249Z,19.83
2022-11-09T21:48:46.330Z,19.58
2022-11-09T21:51:32.025Z,18.88
2022-11-09T21:57:04.832Z,19.88
2022-11-09T21:59:50.240Z,20.88
2022-11-09T22:02:36.042Z,20.98
2022-11-09T22:05:23.132Z,18.63
2022-11-09T22:08:09.046Z,19.25
2022-11-09T22:11:03.183Z,18.75
2022-11-09T22:14:07.194Z,19.42
2022-11-09T22:16:52.458Z,19.90
2022-11-09T22:19:57.467Z,19.38
2022-11-09T22:22:42.992Z,19.15
2022-11-09T22:25:28.430Z,19.58
2022-11-09T22:28:14.969Z,18.88
2022-11-09T22:31:00.757Z,18.55
2022-11-09T22:36:31.577Z,18.17
2022-11-09T22:39:17.247Z,18.88
2022-11-09T22:42:02.758Z,20.00
2022-11-09T22:44:50.013Z,19.10
2022-11-09T22:47:35.599Z,18.05
2022-11-09T22:50:21.302Z,18.55
2022-11-09T22:55:52.913Z,17.40
2022-11-09T22:58:38.370Z,17.00
2022-11-09T23:01:25.116Z,17.50
2022-11-09T23:04:10.861Z,18.63
2022-11-09T23:06:56.171Z,18.20
2022-11-09T23:09:41.517Z,18.70
2022-11-09T23:15:13.430Z,20.20
2022-11-09T23:18:19.026Z,20.70
2022-11-09T23:21:04.905Z,20.42
2022-11-09T23:23:51.504Z,20.80
2022-11-09T23:26:36.806Z,18.88
2022-11-09T23:29:22.019Z,19.40
2022-11-09T23:32:07.192Z,20.88
2022-11-09T23:34:54.037Z,18.48
2022-11-09T23:37:39.789Z,19.65
2022-11-09T23:40:25.430Z,18.33
2022-11-09T23:43:12.113Z,18.63
2022-11-09T23:46:01.186Z,19.48
2022-11-09T23:48:46.661Z,20.05
2022-11-09T23:54:19.201Z,19.85
2022-11-09T23:57:05.028Z,19.70
